Time;durP1;ratioP1;P1;durP2;ratioP2;P2;SDS_P1;SDS_P2;PMS_P1;PMS_P2;Temp;Humidity;BMP_temperature;BMP_pressure;BME280_temperature;BME280_humidity;BME280_pressure;Samples;Min_cycle;Max_cycle;Signal;HPM_P1;HPM_P2
2021/07/01 00:01:23;;;;;;;0.9;0.6;;;;;;;;;;;;;
2021/07/01 00:03:48;;;;;;;1.9;0.7;;;;;;;;;;;;;
2021/07/01 00:06:14;;;;;;;1;0.8;;;;;;;;;;;;;
2021/07/01 00:08:39;;;;;;;1.3;0.7;;;;;;;;;;;;;
2021/07/01 00:11:05;;;;;;;1.6;1;;;;;;;;;;;;;
2021/07/01 00:13:30;;;;;;;1.3;0.8;;;;;;;;;;;;;
2021/07/01 00:15:58;;;;;;;2.4;0.7;;;;;;;;;;;;;
2021/07/01 00:18:23;;;;;;;1.5;0.9;;;;;;;;;;;;;
2021/07/01 00:20:48;;;;;;;1.9;1;;;;;;;;;;;;;
2021/07/01 00:23:13;;;;;;;1.3;0.8;;;;;;;;;;;;;
2021/07/01 00:25:41;;;;;;;2;0.8;;;;;;;;;;;;;
2021/07/01 00:28:04;;;;;;;1.2;0.8;;;;;;;;;;;;;
2021/07/01 00:30:30;;;;;;;2.9;0.9;;;;;;;;;;;;;
2021/07/01 00:32:55;;;;;;;1.5;0.7;;;;;;;;;;;;;
2021/07/01 00:35:21;;;;;;;0.7;0.7;;;;;;;;;;;;;
2021/07/01 00:37:46;;;;;;;1.2;0.7;;;;;;;;;;;;;
2021/07/01 00:40:11;;;;;;;3.1;0.8;;;;;;;;;;;;;
2021/07/01 00:42:38;;;;;;;1.9;1;;;;;;;;;;;;;
2021/07/01 00:45:03;;;;;;;1.3;0.8;;;;;;;;;;;;;
2021/07/01 00:47:29;;;;;;;2;0.9;;;;;;;;;;;;;
2021/07/01 00:49:54;;;;;;;0.6;0.6;;;;;;;;;;;;;
2021/07/01 00:52:20;;;;;;;0.7;0.6;;;;;;;;;;;;;
2021/07/01 00:54:45;;;;;;;1.2;0.8;;;;;;;;;;;;;
2021/07/01 00:57:11;;;;;;;1.1;0.7;;;;;;;;;;;;;
2021/07/01 00:59:36;;;;;;;1.2;0.8;;;;;;;;;;;;;
2021/07/01 01:02:02;;;;;;;2;0.6;;;;;;;;;;;;;
2021/07/01 01:04:27;;;;;;;0.7;0.7;;;;;;;;;;;;;
2021/07/01 01:06:53;;;;;;;0.7;0.7;;;;;;;;;;;;;
2021/07/01 01:09:18;;;;;;;1;0.8;;;;;;;;;;;;;
2021/07/01 01:11:45;;;;;;;1.5;0.8;;;;;;;;;;;;;
2021/07/01 01:14:10;;;;;;;3;0.8;;;;;;;;;;;;;
2021/07/01 01:16:37;;;;;;;0.9;0.7;;;;;;;;;;;;;
2021/07/01 01:19:10;;;;;;;0.8;0.8;;;;;;;;;;;;;
2021/07/01 01:21:36;;;;;;;2.2;0.9;;;;;;;;;;;;;
2021/07/01 01:24:00;;;;;;;1.1;0.9;;;;;;;;;;;;;
2021/07/01 01:26:26;;;;;;;1;0.8;;;;;;;;;;;;;
2021/07/01 01:28:51;;;;;;;2.1;1;;;;;;;;;;;;;
2021/07/01 01:31:17;;;;;;;2;1.4;;;;;;;;;;;;;
2021/07/01 01:33:42;;;;;;;1;0.8;;;;;;;;;;;;;
2021/07/01 01:36:08;;;;;;;1.6;1;;;;;;;;;;;;;
2021/07/01 01:38:33;;;;;;;2.3;1;;;;;;;;;;;;;
2021/07/01 01:40:59;;;;;;;1.3;1;;;;;;;;;;;;;
2021/07/01 01:43:24;;;;;;;1.4;0.8;;;;;;;;;;;;;
2021/07/01 01:45:51;;;;;;;1.7;0.8;;;;;;;;;;;;;
2021/07/01 01:48:16;;;;;;;1.1;0.8;;;;;;;;;;;;;
2021/07/01 01:50:42;;;;;;;1.8;1;;;;;;;;;;;;;
2021/07/01 01:53:07;;;;;;;2;0.8;;;;;;;;;;;;;
2021/07/01 01:55:35;;;;;;;0.9;0.8;;;;;;;;;;;;;
2021/07/01 01:58:00;;;;;;;3.1;0.9;;;;;;;;;;;;;
2021/07/01 02:00:25;;;;;;;2.2;1.1;;;;;;;;;;;;;
2021/07/01 02:02:50;;;;;;;0.7;0.7;;;;;;;;;;;;;
2021/07/01 02:05:16;;;;;;;2.7;1.1;;;;;;;;;;;;;
2021/07/01 02:07:41;;;;;;;2.2;1;;;;;;;;;;;;;
2021/07/01 02:10:06;;;;;;;1.1;0.7;;;;;;;;;;;;;
2021/07/01 02:12:31;;;;;;;2;0.6;;;;;;;;;;;;;
2021/07/01 02:14:56;;;;;;;1;0.8;;;;;;;;;;;;;
2021/07/01 02:17:22;;;;;;;1.7;1;;;;;;;;;;;;;
2021/07/01 02:19:47;;;;;;;3.1;1;;;;;;;;;;;;;
2021/07/01 02:22:12;;;;;;;2.6;1.2;;;;;;;;;;;;;
2021/07/01 02:24:39;;;;;;;2;0.9;;;;;;;;;;;;;
2021/07/01 02:27:04;;;;;;;2.6;1.1;;;;;;;;;;;;;
2021/07/01 02:29:29;;;;;;;2.6;1.2;;;;;;;;;;;;;
2021/07/01 02:31:54;;;;;;;1;0.8;;;;;;;;;;;;;
2021/07/01 02:34:21;;;;;;;2.3;1;;;;;;;;;;;;;
2021/07/01 02:36:46;;;;;;;1.4;1;;;;;;;;;;;;;
2021/07/01 02:39:12;;;;;;;2.4;1.4;;;;;;;;;;;;;
2021/07/01 02:41:37;;;;;;;2.1;1.4;;;;;;;;;;;;;
2021/07/01 02:44:03;;;;;;;1.3;0.9;;;;;;;;;;;;;
2021/07/01 02:46:28;;;;;;;1.2;0.9;;;;;;;;;;;;;
2021/07/01 02:48:56;;;;;;;1.3;1;;;;;;;;;;;;;
2021/07/01 02:51:21;;;;;;;1.2;0.7;;;;;;;;;;;;;
2021/07/01 02:53:46;;;;;;;0.8;0.8;;;;;;;;;;;;;
2021/07/01 02:56:11;;;;;;;3;0.8;;;;;;;;;;;;;
2021/07/01 02:58:36;;;;;;;1.5;1;;;;;;;;;;;;;
2021/07/01 03:01:01;;;;;;;2.2;0.8;;;;;;;;;;;;;
2021/07/01 03:03:28;;;;;;;2.9;1.2;;;;;;;;;;;;;
2021/07/01 03:05:53;;;;;;;2.4;1.2;;;;;;;;;;;;;
2021/07/01 03:08:20;;;;;;;3.3;1.1;;;;;;;;;;;;;
2021/07/01 03:10:45;;;;;;;2.7;1.3;;;;;;;;;;;;;
2021/07/01 03:13:11;;;;;;;1.3;1;;;;;;;;;;;;;
2021/07/01 03:15:39;;;;;;;1.3;0.8;;;;;;;;;;;;;
2021/07/01 03:18:04;;;;;;;1.7;0.9;;;;;;;;;;;;;
2021/07/01 03:20:29;;;;;;;2.2;0.9;;;;;;;;;;;;;
2021/07/01 03:22:55;;;;;;;2.3;1;;;;;;;;;;;;;
2021/07/01 03:25:20;;;;;;;1.4;0.8;;;;;;;;;;;;;
2021/07/01 03:27:45;;;;;;;2.1;1.1;;;;;;;;;;;;;
2021/07/01 03:30:11;;;;;;;2.6;1.1;;;;;;;;;;;;;
2021/07/01 03:32:36;;;;;;;2.8;1;;;;;;;;;;;;;
2021/07/01 03:35:02;;;;;;;2.2;1.3;;;;;;;;;;;;;
2021/07/01 03:37:27;;;;;;;2.8;1.1;;;;;;;;;;;;;
2021/07/01 03:39:53;;;;;;;0.9;0.9;;;;;;;;;;;;;
2021/07/01 03:42:20;;;;;;;1.6;1.1;;;;;;;;;;;;;
2021/07/01 03:44:43;;;;;;;1.9;1;;;;;;;;;;;;;
2021/07/01 03:47:10;;;;;;;2.5;0.7;;;;;;;;;;;;;
2021/07/01 03:49:35;;;;;;;2.6;0.7;;;;;;;;;;;;;
2021/07/01 03:52:00;;;;;;;1.2;0.8;;;;;;;;;;;;;
2021/07/01 03:54:26;;;;;;;1.3;0.6;;;;;;;;;;;;;
2021/07/01 03:56:51;;;;;;;1.3;0.7;;;;;;;;;;;;;
2021/07/01 03:59:18;;;;;;;1.9;0.8;;;;;;;;;;;;;
2021/07/01 04:02:30;;;;;;;1.1;0.7;;;;;;;13.29;94.48438;937.7141;;;;
2021/07/01 04:04:55;;;;;;;1.5;0.8;;;;;;;13.31;92.58105;937.7173;;;;
2021/07/01 04:07:22;;;;;;;0.9;0.7;;;;;;;13.16;93.24902;937.6242;;;;
2021/07/01 04:09:47;;;;;;;1.8;0.9;;;;;;;13.27;93.44629;937.6206;;;;
2021/07/01 04:12:14;;;;;;;1.1;0.8;;;;;;;13.33;94.33398;937.7349;;;;
2021/07/01 04:14:39;;;;;;;1.3;0.7;;;;;;;13.34;94.19531;937.7036;;;;
2021/07/01 04:17:05;;;;;;;1.5;0.8;;;;;;;13.4;92.98145;937.7378;;;;
2021/07/01 04:19:33;;;;;;;1.5;0.6;;;;;;;13.36;93.14453;937.718;;;;
2021/07/01 04:22:01;;;;;;;1.6;0.6;;;;;;;13.4;93.14258;937.6875;;;;
2021/07/01 04:24:26;;;;;;;0.6;0.6;;;;;;;13.45;92.7041;937.6925;;;;
2021/07/01 04:26:55;;;;;;;1;0.5;;;;;;;13.32;92.95215;937.7037;;;;
2021/07/01 04:29:25;;;;;;;1;0.8;;;;;;;13.37;92.42188;937.7371;;;;
2021/07/01 04:31:50;;;;;;;1.8;0.6;;;;;;;13.43;92.11328;937.7566;;;;
2021/07/01 04:34:17;;;;;;;1.2;0.8;;;;;;;13.48;92.2041;937.75;;;;
2021/07/01 04:36:42;;;;;;;1.1;0.8;;;;;;;13.48;91.93945;937.7316;;;;
2021/07/01 04:39:08;;;;;;;3.2;0.8;;;;;;;13.49;92.16113;937.7291;;;;
2021/07/01 04:41:36;;;;;;;1.1;0.6;;;;;;;13.6;92.91895;937.7336;;;;
2021/07/01 04:44:22;;;;;;;0.6;0.6;;;;;;;13.58;92.92773;937.8113;;;;
2021/07/01 04:46:50;;;;;;;2.5;0.9;;;;;;;13.57;92.13086;937.8513;;;;
2021/07/01 04:49:15;;;;;;;2.8;0.8;;;;;;;13.58;93.00879;937.8945;;;;
2021/07/01 04:51:42;;;;;;;1.9;0.8;;;;;;;13.56;93.19824;937.9122;;;;
2021/07/01 04:54:07;;;;;;;1.3;0.6;;;;;;;13.54;92.91797;937.937;;;;
2021/07/01 04:56:44;;;;;;;1.8;0.8;;;;;;;13.55;92.00293;937.8762;;;;
2021/07/01 04:59:02;;;;;;;2.8;0.8;;;;;;;13.58;91.68457;937.8953;;;;
2021/07/01 05:01:27;;;;;;;2.8;1;;;;;;;13.56;91.5791;937.9985;;;;
2021/07/01 05:03:55;;;;;;;3.1;0.8;;;;;;;13.52;92.70801;937.9963;;;;
2021/07/01 05:06:20;;;;;;;2.6;0.8;;;;;;;13.49;92.06738;938.0452;;;;
2021/07/01 05:08:47;;;;;;;2.9;0.9;;;;;;;13.55;91.97754;938.1026;;;;
2021/07/01 05:11:12;;;;;;;1.4;1;;;;;;;13.6;90.76855;938.1641;;;;
2021/07/01 05:13:39;;;;;;;3.2;0.8;;;;;;;13.65;90.85059;938.2147;;;;
2021/07/01 05:16:07;;;;;;;1.2;0.9;;;;;;;13.64;90.12207;938.2371;;;;
2021/07/01 05:18:32;;;;;;;2.1;0.8;;;;;;;13.61;91.34668;938.2321;;;;
2021/07/01 05:20:59;;;;;;;1;0.7;;;;;;;13.66;90.0459;938.193;;;;
2021/07/01 05:23:24;;;;;;;2.5;0.8;;;;;;;13.73;89.71484;938.2576;;;;
2021/07/01 05:25:52;;;;;;;2.6;0.9;;;;;;;13.73;90.81934;938.3353;;;;
2021/07/01 05:28:17;;;;;;;1.6;0.7;;;;;;;13.75;91.0166;938.2832;;;;
2021/07/01 05:30:46;;;;;;;2;1.1;;;;;;;13.73;90.2793;938.3225;;;;
2021/07/01 05:33:10;;;;;;;1.2;0.9;;;;;;;13.72;89.81738;938.3329;;;;
2021/07/01 05:35:35;;;;;;;1.3;1.1;;;;;;;13.77;90.83887;938.3264;;;;
2021/07/01 05:38:00;;;;;;;3;2.3;;;;;;;13.9;89.75098;938.3423;;;;
2021/07/01 05:40:27;;;;;;;3.2;2.2;;;;;;;14.06;88.67773;938.3204;;;;
2021/07/01 05:42:54;;;;;;;3.4;1.7;;;;;;;14.04;88.46777;938.29;;;;
2021/07/01 05:45:19;;;;;;;28.6;20.8;;;;;;;13.98;88.5459;938.3036;;;;
2021/07/01 05:47:45;;;;;;;24.9;17.4;;;;;;;14.03;89.65039;938.4094;;;;
2021/07/01 05:50:10;;;;;;;16.9;11.7;;;;;;;14.06;88.68848;938.3788;;;;
2021/07/01 05:52:36;;;;;;;8.8;4.6;;;;;;;14.17;87.19238;938.4464;;;;
2021/07/01 05:55:02;;;;;;;3.3;2.7;;;;;;;14.11;88.04395;938.4651;;;;
2021/07/01 05:57:28;;;;;;;3;2;;;;;;;14.17;88.5166;938.4769;;;;
2021/07/01 05:59:53;;;;;;;1.7;1.3;;;;;;;14.18;88.4248;938.5089;;;;
2021/07/01 06:02:18;;;;;;;2.2;1.5;;;;;;;14.04;88.59277;938.5255;;;;
2021/07/01 06:04:46;;;;;;;2.7;1.7;;;;;;;13.96;89.28027;938.5326;;;;
2021/07/01 06:07:11;;;;;;;2.8;1.7;;;;;;;14.05;88.3418;938.4741;;;;
2021/07/01 06:09:37;;;;;;;4;2.9;;;;;;;14.24;89.40527;938.5049;;;;
2021/07/01 06:12:02;;;;;;;3.3;1.8;;;;;;;14.31;90.2373;938.5375;;;;
2021/07/01 06:14:31;;;;;;;3;1.6;;;;;;;14.45;89.19629;938.579;;;;
2021/07/01 06:17:05;;;;;;;4.1;2.2;;;;;;;14.34;88.73438;938.5927;;;;
2021/07/01 06:19:31;;;;;;;2.5;1.9;;;;;;;14.29;88.47363;938.6184;;;;
2021/07/01 06:21:56;;;;;;;2.8;1.9;;;;;;;14.34;87.88184;938.5734;;;;
2021/07/01 06:24:21;;;;;;;2.7;1.8;;;;;;;14.47;86.97559;938.6094;;;;
2021/07/01 06:26:46;;;;;;;2.7;1.7;;;;;;;14.48;87.41602;938.574;;;;
2021/07/01 06:29:15;;;;;;;1.8;1.2;;;;;;;14.51;86.10742;938.6284;;;;
2021/07/01 06:31:40;;;;;;;2.2;1.3;;;;;;;14.4;86.84766;938.5811;;;;
2021/07/01 06:34:08;;;;;;;2.2;1.4;;;;;;;14.35;85.82324;938.6189;;;;
2021/07/01 06:36:38;;;;;;;2.7;1.5;;;;;;;14.17;86.80176;938.6074;;;;
2021/07/01 06:39:03;;;;;;;0.8;0.4;;;;;;;13.78;85.47949;938.6177;;;;
2021/07/01 06:41:28;;;;;;;0.6;0.6;;;;;;;13.91;84.63184;938.7097;;;;
2021/07/01 06:43:55;;;;;;;0.9;0.7;;;;;;;14;87.38867;938.7014;;;;
2021/07/01 06:46:20;;;;;;;0.6;0.6;;;;;;;14.01;87.20605;938.7399;;;;
2021/07/01 06:48:46;;;;;;;2.2;0.5;;;;;;;14.1;85.85449;938.6653;;;;
2021/07/01 06:51:11;;;;;;;0.5;0.5;;;;;;;13.97;86.37988;938.7352;;;;
2021/07/01 06:53:38;;;;;;;1.1;0.9;;;;;;;13.9;89.57617;938.7665;;;;
2021/07/01 06:56:03;;;;;;;1.4;0.8;;;;;;;14.03;90.19141;938.7937;;;;
2021/07/01 06:58:34;;;;;;;1.8;0.7;;;;;;;14.15;87.91504;938.8101;;;;
2021/07/01 07:00:59;;;;;;;1.4;0.7;;;;;;;14.22;88.8252;938.8141;;;;
2021/07/01 07:03:24;;;;;;;1.2;1;;;;;;;14.32;89.44629;938.8466;;;;
2021/07/01 07:05:52;;;;;;;0.9;0.7;;;;;;;14.42;88.30371;938.8897;;;;
2021/07/01 07:08:18;;;;;;;2.1;0.9;;;;;;;14.43;86.51953;938.8499;;;;
2021/07/01 07:10:46;;;;;;;1;0.9;;;;;;;14.62;85.64648;938.8806;;;;
2021/07/01 07:13:10;;;;;;;1.4;0.5;;;;;;;14.64;82.74414;938.9478;;;;
2021/07/01 07:15:37;;;;;;;1.5;0.8;;;;;;;14.77;83.50684;938.9808;;;;
2021/07/01 07:18:08;;;;;;;1.3;0.5;;;;;;;14.82;82.96387;939.0008;;;;
2021/07/01 07:20:38;;;;;;;0.4;0.4;;;;;;;14.68;80.01074;938.9892;;;;
2021/07/01 07:23:04;;;;;;;0.2;0.2;;;;;;;14.51;79.15918;938.9601;;;;
2021/07/01 07:25:28;;;;;;;0.4;0.4;;;;;;;14.66;78.27637;938.9973;;;;
2021/07/01 07:27:54;;;;;;;1.6;0.3;;;;;;;14.69;80.67871;939.0084;;;;
2021/07/01 07:30:19;;;;;;;0.6;0.4;;;;;;;14.84;81.42285;938.8844;;;;
2021/07/01 07:32:45;;;;;;;0.9;0.4;;;;;;;15.14;79.71387;938.9341;;;;
2021/07/01 07:35:10;;;;;;;0.7;0.4;;;;;;;15.23;80.0293;938.9266;;;;
2021/07/01 07:37:39;;;;;;;0.3;0.3;;;;;;;15.43;77.57324;938.8683;;;;
2021/07/01 07:40:04;;;;;;;0.4;0.4;;;;;;;15.71;78.47559;938.8191;;;;
2021/07/01 07:42:33;;;;;;;2.3;0.3;;;;;;;15.86;77.00098;938.8364;;;;
2021/07/01 07:44:58;;;;;;;0.9;0.3;;;;;;;15.18;76.49902;938.921;;;;
2021/07/01 07:47:28;;;;;;;0.9;0.3;;;;;;;15.38;78.92578;938.9005;;;;
2021/07/01 07:49:56;;;;;;;0.8;0.4;;;;;;;15.59;78.58008;938.774;;;;
2021/07/01 07:52:21;;;;;;;1.6;0.5;;;;;;;15.69;76.91113;938.8385;;;;
2021/07/01 07:54:47;;;;;;;0.8;0.4;;;;;;;15.84;75.4707;938.8912;;;;
2021/07/01 07:57:15;;;;;;;0.3;0.3;;;;;;;15.99;74.97656;938.8558;;;;
2021/07/01 07:59:40;;;;;;;0.9;0.3;;;;;;;15.3;72.37598;938.8883;;;;
2021/07/01 08:02:07;;;;;;;0.9;0.3;;;;;;;15.25;75.69238;938.8815;;;;
2021/07/01 08:04:33;;;;;;;0.5;0.4;;;;;;;15.36;77.08691;938.8003;;;;
2021/07/01 08:06:58;;;;;;;1.2;0.2;;;;;;;15.5;75.2168;938.8749;;;;
2021/07/01 08:09:27;;;;;;;0.7;0.4;;;;;;;15.81;77.60547;938.8253;;;;
2021/07/01 08:11:53;;;;;;;0.3;0.2;;;;;;;16.25;73.68066;938.7339;;;;
2021/07/01 08:14:19;;;;;;;0.4;0.3;;;;;;;16.54;73.4502;938.8022;;;;
2021/07/01 08:16:47;;;;;;;0.4;0.2;;;;;;;16.26;67.96777;938.7916;;;;
2021/07/01 08:19:16;;;;;;;0.2;0.2;;;;;;;16.57;72.01953;938.8147;;;;
2021/07/01 08:21:45;;;;;;;0.6;0.2;;;;;;;16.59;70.02051;938.7985;;;;
2021/07/01 08:24:10;;;;;;;0.6;0.4;;;;;;;16.72;72.83203;938.769;;;;
2021/07/01 08:26:37;;;;;;;0.4;0.3;;;;;;;16.94;70.48145;938.7608;;;;
2021/07/01 08:29:02;;;;;;;0.6;0.4;;;;;;;16.67;74.09863;938.6685;;;;
2021/07/01 08:31:29;;;;;;;0.6;0.4;;;;;;;16.82;70.17383;938.7158;;;;
2021/07/01 08:33:55;;;;;;;0.9;0.5;;;;;;;16.92;70.14355;938.7562;;;;
2021/07/01 08:36:21;;;;;;;3.2;0.3;;;;;;;16.47;71.29688;938.7598;;;;
2021/07/01 08:38:46;;;;;;;0.3;0.2;;;;;;;16.31;72.9502;938.7839;;;;
2021/07/01 08:41:12;;;;;;;0.4;0.4;;;;;;;16.37;74.55762;938.8024;;;;
2021/07/01 08:43:37;;;;;;;0.6;0.3;;;;;;;16.26;72.96387;938.7941;;;;
2021/07/01 08:46:02;;;;;;;1.7;0.5;;;;;;;15.97;72.9043;938.82;;;;
2021/07/01 08:48:27;;;;;;;0.8;0.4;;;;;;;15.96;73.14551;938.8948;;;;
2021/07/01 08:50:52;;;;;;;0.3;0.3;;;;;;;15.88;72.91211;938.8811;;;;
2021/07/01 08:53:17;;;;;;;1.4;0.4;;;;;;;15.86;75.11719;938.8315;;;;
2021/07/01 08:55:43;;;;;;;0.5;0.4;;;;;;;15.83;75.78223;938.9756;;;;
2021/07/01 08:58:08;;;;;;;0.9;0.5;;;;;;;15.85;76.16699;938.952;;;;
2021/07/01 09:00:36;;;;;;;0.9;0.5;;;;;;;15.82;81.22266;938.9684;;;;
2021/07/01 09:03:02;;;;;;;1.9;0.5;;;;;;;15.79;81.83008;938.9483;;;;
2021/07/01 09:05:29;;;;;;;0.6;0.3;;;;;;;15.91;80.75586;938.9426;;;;
2021/07/01 09:07:54;;;;;;;1.7;0.5;;;;;;;15.89;82.84473;938.9653;;;;
2021/07/01 09:10:21;;;;;;;0.8;0.5;;;;;;;16.03;82.25781;939.0084;;;;
2021/07/01 09:12:46;;;;;;;2.2;0.7;;;;;;;16.19;83.07324;938.9745;;;;
2021/07/01 09:15:21;;;;;;;1.2;0.5;;;;;;;16.18;76.57227;939.0245;;;;
2021/07/01 09:17:48;;;;;;;1.6;0.6;;;;;;;16.35;79.3418;939.0606;;;;
2021/07/01 09:20:13;;;;;;;2;0.8;;;;;;;16.46;77.98535;939.0452;;;;
2021/07/01 09:22:40;;;;;;;2.6;0.7;;;;;;;16.67;76.5752;939.0385;;;;
2021/07/01 09:25:06;;;;;;;0.5;0.3;;;;;;;16.88;77.20313;938.9731;;;;
2021/07/01 09:27:31;;;;;;;1.1;0.6;;;;;;;16.84;73.85938;938.9383;;;;
2021/07/01 09:30:00;;;;;;;1.2;0.5;;;;;;;16.93;72.29883;938.8879;;;;
2021/07/01 09:32:24;;;;;;;2.8;0.4;;;;;;;16.92;74.35938;938.9003;;;;
2021/07/01 09:34:54;;;;;;;0.5;0.5;;;;;;;16.73;73.28516;938.9024;;;;
2021/07/01 09:37:19;;;;;;;0.5;0.3;;;;;;;16.35;73.09473;938.9047;;;;
2021/07/01 09:39:44;;;;;;;0.4;0.3;;;;;;;16.26;71.48438;938.8864;;;;
2021/07/01 09:42:09;;;;;;;2.6;0.6;;;;;;;16.53;74.73535;938.8562;;;;
2021/07/01 09:44:38;;;;;;;0.5;0.3;;;;;;;16.87;74.42188;938.7649;;;;
2021/07/01 09:47:05;;;;;;;0.4;0.4;;;;;;;16.97;75.12402;938.8326;;;;
2021/07/01 09:49:31;;;;;;;0.5;0.5;;;;;;;17.23;74.78418;938.8633;;;;
2021/07/01 09:51:56;;;;;;;1;0.8;;;;;;;17.42;71.29004;938.8525;;;;
2021/07/01 09:54:23;;;;;;;3.1;2.7;;;;;;;17.86;73.20801;938.8508;;;;
2021/07/01 09:56:48;;;;;;;2.3;1.2;;;;;;;18.3;70.16602;938.878;;;;
2021/07/01 09:59:13;;;;;;;0.7;0.7;;;;;;;17.66;73.88281;938.7828;;;;
2021/07/01 10:01:39;;;;;;;1.3;0.8;;;;;;;17.4;70.75195;938.8663;;;;
2021/07/01 10:04:05;;;;;;;0.7;0.7;;;;;;;17.7;69.60645;938.7922;;;;
2021/07/01 10:06:30;;;;;;;1.6;0.6;;;;;;;17.85;70.36035;938.752;;;;
2021/07/01 10:08:55;;;;;;;1.4;0.5;;;;;;;18.28;71.02148;938.8139;;;;
2021/07/01 10:11:20;;;;;;;0.7;0.6;;;;;;;18.24;70.61035;938.7864;;;;
2021/07/01 10:13:45;;;;;;;0.9;0.3;;;;;;;18.47;71.77246;938.7831;;;;
2021/07/01 10:16:18;;;;;;;0.6;0.4;;;;;;;18.47;70.49512;938.7871;;;;
2021/07/01 10:18:46;;;;;;;0.9;0.3;;;;;;;18.65;69.84961;938.7742;;;;
2021/07/01 10:21:12;;;;;;;0.3;0.3;;;;;;;18.06;61.6582;938.7711;;;;
2021/07/01 10:23:39;;;;;;;0.2;0.2;;;;;;;17.46;63.75586;938.74;;;;
2021/07/01 10:26:04;;;;;;;0.1;0.1;;;;;;;17.35;64.51758;938.7881;;;;
2021/07/01 10:28:31;;;;;;;1.1;0.4;;;;;;;17.41;66.39355;938.6874;;;;
2021/07/01 10:30:56;;;;;;;0.4;0.4;;;;;;;17.32;65.78906;938.6696;;;;
2021/07/01 10:33:21;;;;;;;1.1;0.6;;;;;;;17.48;66.50781;938.6682;;;;
2021/07/01 10:35:50;;;;;;;0.3;0.3;;;;;;;17.44;66.59375;938.6244;;;;
2021/07/01 10:38:14;;;;;;;0.4;0.4;;;;;;;17.73;67.17285;938.6507;;;;
2021/07/01 10:40:40;;;;;;;0.4;0.4;;;;;;;18.05;71.08984;938.6375;;;;
2021/07/01 10:43:05;;;;;;;1.1;0.5;;;;;;;18.24;70.14355;938.5616;;;;
2021/07/01 10:45:36;;;;;;;0.6;0.5;;;;;;;18.22;68.57324;938.6425;;;;
2021/07/01 10:48:01;;;;;;;0.6;0.4;;;;;;;18.05;66.46582;938.6133;;;;
2021/07/01 10:50:30;;;;;;;1.3;0.4;;;;;;;18.07;66.55176;938.6629;;;;
2021/07/01 10:52:51;;;;;;;0.6;0.5;;;;;;;18.26;68.57813;938.6498;;;;
2021/07/01 10:55:17;;;;;;;0.7;0.5;;;;;;;18.37;68.25879;938.6292;;;;
2021/07/01 10:57:43;;;;;;;0.4;0.4;;;;;;;18.07;69.62988;938.604;;;;
2021/07/01 11:00:10;;;;;;;1.1;0.6;;;;;;;18.15;65.62109;938.5203;;;;
2021/07/01 11:02:37;;;;;;;0.5;0.3;;;;;;;18.12;63.58594;938.6481;;;;
2021/07/01 11:05:02;;;;;;;0.9;0.9;;;;;;;18.25;65.1377;938.6274;;;;
2021/07/01 11:07:27;;;;;;;1;0.5;;;;;;;18.67;63.99121;938.6214;;;;
2021/07/01 11:09:54;;;;;;;1.3;0.5;;;;;;;18.61;62.48047;938.5946;;;;
2021/07/01 11:12:23;;;;;;;0.2;0.2;;;;;;;18.76;65.45703;938.6082;;;;
2021/07/01 11:14:47;;;;;;;0.9;0.4;;;;;;;18.94;66.8457;938.5974;;;;
2021/07/01 11:17:13;;;;;;;1.3;0.5;;;;;;;18.76;63.10645;938.6042;;;;
2021/07/01 11:20:30;;;;;;;2.4;0.9;;;;;;;19.08;65.42285;938.5832;;;;
2021/07/01 11:22:58;;;;;;;0.7;0.6;;;;;;;18.59;64.54785;938.5555;;;;
2021/07/01 11:25:22;;;;;;;0.6;0.4;;;;;;;19.14;63.17285;938.5988;;;;
2021/07/01 11:27:47;;;;;;;1.2;0.4;;;;;;;18.99;58.48242;938.535;;;;
2021/07/01 11:30:13;;;;;;;1.5;0.5;;;;;;;19.17;59.58984;938.5439;;;;
2021/07/01 11:32:38;;;;;;;0.4;0.3;;;;;;;19.31;64.11719;938.5176;;;;
2021/07/01 11:35:03;;;;;;;1.2;0.6;;;;;;;19.34;62.13086;938.4369;;;;
2021/07/01 11:37:28;;;;;;;0.4;0.4;;;;;;;19.22;61.05273;938.4478;;;;
2021/07/01 11:39:53;;;;;;;0.3;0.3;;;;;;;19.27;61.33984;938.3596;;;;
2021/07/01 11:42:18;;;;;;;0.4;0.3;;;;;;;19.35;61.38477;938.3391;;;;
2021/07/01 11:44:43;;;;;;;0.4;0.4;;;;;;;19.76;60.19434;938.3766;;;;
2021/07/01 11:47:10;;;;;;;1.9;0.5;;;;;;;20.28;59.09766;938.4314;;;;
2021/07/01 11:49:35;;;;;;;1;0.4;;;;;;;19.84;58.56055;938.386;;;;
2021/07/01 11:52:05;;;;;;;1;0.5;;;;;;;19.87;58.92676;938.4119;;;;
2021/07/01 11:54:30;;;;;;;1.1;0.5;;;;;;;20.13;58.51855;938.4755;;;;
2021/07/01 11:56:55;;;;;;;1.1;0.5;;;;;;;20.59;58.63672;938.4039;;;;
2021/07/01 11:59:20;;;;;;;1;0.4;;;;;;;20.4;58.78613;938.3536;;;;
2021/07/01 12:01:46;;;;;;;0.4;0.4;;;;;;;20.29;57.12598;938.3503;;;;
2021/07/01 12:04:11;;;;;;;1.6;0.4;;;;;;;20.37;57.20605;938.3464;;;;
2021/07/01 12:06:36;;;;;;;0.5;0.4;;;;;;;20.55;57.14844;938.3217;;;;
2021/07/01 12:09:01;;;;;;;1.4;0.5;;;;;;;20.8;59.10938;938.3362;;;;
2021/07/01 12:11:30;;;;;;;1.3;0.5;;;;;;;20.49;58.28613;938.2935;;;;
2021/07/01 12:13:54;;;;;;;1.3;0.6;;;;;;;20.71;54.82031;938.3292;;;;
2021/07/01 12:16:23;;;;;;;1.1;0.5;;;;;;;20.65;53.63184;938.3214;;;;
2021/07/01 12:18:48;;;;;;;1.4;0.4;;;;;;;20.7;58.90918;938.3215;;;;
2021/07/01 12:21:17;;;;;;;0.6;0.5;;;;;;;20.14;61.6709;938.3215;;;;
2021/07/01 12:23:42;;;;;;;0.4;0.4;;;;;;;20.33;57.30664;938.3555;;;;
2021/07/01 12:26:09;;;;;;;0.7;0.5;;;;;;;20.45;55.88672;938.2766;;;;
2021/07/01 12:28:34;;;;;;;0.7;0.6;;;;;;;20.54;56.44727;938.2198;;;;
2021/07/01 12:31:02;;;;;;;1.4;0.6;;;;;;;20.62;56.57324;938.2234;;;;
2021/07/01 12:33:27;;;;;;;0.4;0.4;;;;;;;20.5;56.65137;938.2437;;;;
2021/07/01 12:35:52;;;;;;;0.8;0.4;;;;;;;20.23;59.46484;938.2484;;;;
2021/07/01 12:38:17;;;;;;;0.5;0.5;;;;;;;20.34;60.47266;938.3026;;;;
2021/07/01 12:40:43;;;;;;;1;0.5;;;;;;;20.33;60.97363;938.2634;;;;
2021/07/01 12:43:08;;;;;;;0.5;0.5;;;;;;;20.04;56.1377;938.1563;;;;
2021/07/01 12:45:36;;;;;;;2.1;0.6;;;;;;;19.46;58.0791;938.2413;;;;
2021/07/01 12:48:01;;;;;;;1.4;0.4;;;;;;;19.58;58.86523;938.2361;;;;
2021/07/01 12:50:26;;;;;;;0.9;0.5;;;;;;;19.87;61.34082;938.2342;;;;
2021/07/01 12:52:52;;;;;;;1.5;0.8;;;;;;;20.13;60.86426;938.2056;;;;
2021/07/01 12:55:16;;;;;;;0.8;0.6;;;;;;;20.01;59.58691;938.1116;;;;
2021/07/01 12:57:43;;;;;;;1.4;0.7;;;;;;;20.3;56.89355;938.1453;;;;
2021/07/01 13:00:08;;;;;;;0.6;0.3;;;;;;;20.41;56.5459;938.1022;;;;
2021/07/01 13:02:36;;;;;;;0.4;0.4;;;;;;;20.42;57.95996;938.1155;;;;
2021/07/01 13:05:09;;;;;;;2.4;0.6;;;;;;;20.38;53.63574;938.2061;;;;
2021/07/01 13:07:32;;;;;;;0.6;0.6;;;;;;;20.56;52.61719;938.0801;;;;
2021/07/01 13:09:57;;;;;;;1.1;0.5;;;;;;;20.4;57.16309;938.1255;;;;
2021/07/01 13:12:26;;;;;;;1.2;1.1;;;;;;;20.48;57.57129;938.115;;;;
2021/07/01 13:14:49;;;;;;;0.7;0.6;;;;;;;21.04;52.8252;938.0391;;;;
2021/07/01 13:17:17;;;;;;;0.9;0.7;;;;;;;20.95;55.85547;938.0561;;;;
2021/07/01 13:19:42;;;;;;;0.5;0.5;;;;;;;20.82;47.62109;938.0298;;;;
2021/07/01 13:22:07;;;;;;;1.1;0.7;;;;;;;20.72;48.07813;938.0117;;;;
2021/07/01 13:24:33;;;;;;;0.5;0.5;;;;;;;21.08;47.22852;937.9625;;;;
2021/07/01 13:26:58;;;;;;;1.5;1;;;;;;;21;47.05566;938.0126;;;;
2021/07/01 13:29:23;;;;;;;0.6;0.5;;;;;;;20.9;45.4668;937.9863;;;;
2021/07/01 13:31:51;;;;;;;1.6;0.5;;;;;;;21.2;47.80371;938.0954;;;;
2021/07/01 13:34:16;;;;;;;0.6;0.6;;;;;;;21.28;48.18555;938.0701;;;;
2021/07/01 13:36:43;;;;;;;0.7;0.6;;;;;;;21.18;47.99902;938.1464;;;;
2021/07/01 13:39:08;;;;;;;0.6;0.6;;;;;;;20.6;47.58594;938.0717;;;;
2021/07/01 13:41:36;;;;;;;0.5;0.5;;;;;;;20.65;49.14551;938.0966;;;;
2021/07/01 13:44:01;;;;;;;0.6;0.6;;;;;;;20.53;50.33496;938.0115;;;;
2021/07/01 13:46:27;;;;;;;0.8;0.7;;;;;;;20.4;47.72852;938.0292;;;;
2021/07/01 13:48:52;;;;;;;0.7;0.7;;;;;;;20.13;49.68262;938.1418;;;;
2021/07/01 13:51:17;;;;;;;0.7;0.7;;;;;;;20.24;48.71484;938.0751;;;;
2021/07/01 13:53:44;;;;;;;1;0.9;;;;;;;20.31;50.48535;938.1239;;;;
2021/07/01 13:56:09;;;;;;;0.8;0.8;;;;;;;20.7;52.48145;938.1515;;;;
2021/07/01 13:58:34;;;;;;;1.9;0.8;;;;;;;20.65;50.87402;938.098;;;;
2021/07/01 14:00:58;;;;;;;1;0.9;;;;;;;20.61;50.77734;938.1079;;;;
2021/07/01 14:03:25;;;;;;;1.4;0.9;;;;;;;20.4;49.3623;938.0463;;;;
2021/07/01 14:05:50;;;;;;;2.4;0.8;;;;;;;20.81;50.70703;937.9863;;;;
2021/07/01 14:08:17;;;;;;;0.8;0.8;;;;;;;20.72;47.89063;938.0295;;;;
2021/07/01 14:10:43;;;;;;;2.1;0.9;;;;;;;20.74;47.78809;938.0461;;;;
2021/07/01 14:13:08;;;;;;;2.8;1;;;;;;;20.84;48.59375;937.9188;;;;
2021/07/01 14:15:51;;;;;;;1.5;1;;;;;;;20.63;49.97266;937.927;;;;
2021/07/01 14:18:20;;;;;;;1.1;0.9;;;;;;;20.84;51.69238;937.9291;;;;
2021/07/01 14:20:46;;;;;;;1.1;0.9;;;;;;;20.67;46.55371;937.9283;;;;
2021/07/01 14:23:11;;;;;;;0.7;0.7;;;;;;;20.82;47.83203;937.9241;;;;
2021/07/01 14:25:41;;;;;;;1.3;1;;;;;;;20.79;49.44141;937.9789;;;;
2021/07/01 14:28:09;;;;;;;1.4;0.9;;;;;;;20.79;46.36816;938.0775;;;;
2021/07/01 14:30:34;;;;;;;1.2;1.1;;;;;;;20.53;47.46191;937.9889;;;;
2021/07/01 14:32:59;;;;;;;1.5;0.9;;;;;;;20.53;50.89648;938.0577;;;;
2021/07/01 14:35:24;;;;;;;0.8;0.8;;;;;;;20.56;46.40234;937.9579;;;;
2021/07/01 14:37:50;;;;;;;0.9;0.9;;;;;;;20.52;48.82715;938.0078;;;;
2021/07/01 14:40:15;;;;;;;2.6;1.1;;;;;;;20.21;46.80859;937.91;;;;
2021/07/01 14:42:41;;;;;;;0.9;0.9;;;;;;;20.02;53.92969;938.1284;;;;
2021/07/01 14:45:09;;;;;;;2;1;;;;;;;20.48;51.9873;938.072;;;;
2021/07/01 14:47:34;;;;;;;1.9;1.2;;;;;;;20.69;51.3584;938.0563;;;;
2021/07/01 14:49:59;;;;;;;2.2;1.1;;;;;;;20.58;50.66797;938.0546;;;;
2021/07/01 14:52:25;;;;;;;1.5;1;;;;;;;20.45;51.94922;938.1011;;;;
2021/07/01 14:54:50;;;;;;;1.4;1.3;;;;;;;20.06;52.97754;938.1194;;;;
2021/07/01 14:57:15;;;;;;;2.9;1.4;;;;;;;20.13;54.74805;938.0575;;;;
2021/07/01 14:59:42;;;;;;;3.3;1.4;;;;;;;20.3;56.47461;938.1281;;;;
2021/07/01 15:02:08;;;;;;;1.6;1.2;;;;;;;20.29;56.99902;938.0728;;;;
2021/07/01 15:04:33;;;;;;;1.7;1.3;;;;;;;20.18;56.16602;938.0062;;;;
2021/07/01 15:06:58;;;;;;;1.5;1.2;;;;;;;20.13;55.92773;938.0406;;;;
2021/07/01 15:09:26;;;;;;;2.2;1.4;;;;;;;20.28;56.70605;938.0351;;;;
2021/07/01 15:11:51;;;;;;;2.2;1.4;;;;;;;19.9;58.44043;938.0572;;;;
2021/07/01 15:14:18;;;;;;;2.7;1.4;;;;;;;19.84;56.87012;938.0732;;;;
2021/07/01 15:16:46;;;;;;;2.2;1.6;;;;;;;19.78;56.95605;938.1238;;;;
2021/07/01 15:19:16;;;;;;;2.1;1.6;;;;;;;19.61;57.2832;938.1231;;;;
2021/07/01 15:21:41;;;;;;;1.9;1.5;;;;;;;19.62;57.54199;938.1067;;;;
2021/07/01 15:29:07;;;;;;;1.6;1.5;;;;;;;19.39;57.27832;938.1192;;;;
2021/07/01 15:31:32;;;;;;;2.9;1.7;;;;;;;19.52;57.86621;938.147;;;;
2021/07/01 15:33:58;;;;;;;1.4;1.3;;;;;;;19.31;58.72363;938.2115;;;;
2021/07/01 15:36:23;;;;;;;1.5;1.3;;;;;;;19.41;56.91992;938.092;;;;
2021/07/01 15:38:48;;;;;;;1.6;1.4;;;;;;;19.49;58.45703;938.1984;;;;